To NAV CANADA Home Page Login to a new session Search on AWWS site Disclaimer Vers la page française équivalente Tips FAQ What's new on the site To the Forecasts and Observations / NOTAM section To "File a Flight Plan" website Publications and other links Update of the User's profile FIC Telephone Numbers My Weather Data Folder Route Weather Data Regional Weather Data Local Weather Data To the Forecasts and Observations / NOTAM section
Request Generated 03/18/2019 at 19:49:03 UTC . Weather information available at that time is displayed.

METAR/TAF

GOOSE BAY/NL    

METAR CYYR 181900Z 01004KT 15SM BKN037 BKN110 BKN260 M06/M14 A2981 RMK SC5AC1CS2 VIRGA SLP099=
METAR CYYR 181800Z 32005KT 15SM FEW038 FEW090 SCT110 BKN260 M07/M15 A2979 RMK SC2AC1AC2CS3 SLP093=
METAR CYYR 181700Z 34008KT 15SM FEW037 SCT085 BKN110 M07/M13 A2978 RMK SC2AC1AS2 SLP087=

TAF CYYR 181730Z 1818/1918 34008KT P6SM FEW030 BKN110
BECMG 1822/1824 VRB03KT
FM190400 30008KT P6SM SCT040 BKN180
FM190900 VRB03KT P6SM SCT220
BECMG 1913/1915 26010KT
RMK NXT FCST BY 190000Z=
Your time UTC time
Weather data provided by Environment Canada and NAV CANADA